Castres-Mazamet Airport

LFCK · Tarn, Occitanie, 法国

罗盘
风向 的 风向 280° Castres-Mazamet Airport 14/32
风: 3 kt, 1 beaufort

2 kt

2 kt
改变
0 1.000 2.000 3.000 4.000 5.000
BKN 2.200 ft
BKN 2.700 ft
OVC 4.000 ft
METAR LFCK 021500Z AUTO 28003KT 9999 BKN022 BKN027 OVC040 06/03 Q1015 NOSIG

METAR Castres-Mazamet Airport - LFCK/DCM

Castres-Mazamet Airport是,法国中的中型机场。 该机场有一条跑道: 14/32. 该领域的国际民航组织标志是LFCK 它的国际航空运输协会代码是DCM.

这份报告是针对2022年12月2日 16:00, 当地时间在Castres-Mazamet Airport进行的。

机场观察

风向为280°,速度为3 kt。

可见度为10 km 或者更多。

有碎云在2.200 ft的高度, 碎云在2.700 ft的高度 和 乌云密布在4.000 ft的高度。 破损或更高的上限为2.200 ft。

温度为6 °C,阵风为4 °C。 露点为3 °C,相对湿度为81%。 海平面上的气压为1015 hPa (QNH)。

白天

今天,太阳从08:05升起,在17:15降落。 这适用于Castres-Mazamet Airport,世界夏令时可能有所不同。 当地时间与世界标准时间之间的时差为+1 小时。 当前,没有夏令时有效。

公司介绍

在这个机场,你可以找到飞行俱乐部。 本场上唯一已知的公司是Aéroclub de Castres Mazamet。

体会

到Vliegles.nl去找飞行课程,跳伞和其他飞行体验。 浏览页面,了解Castres-Mazamet Airport附近所有可用的活动。 你也可以使用搜索功能来寻找你所在地附近的特定飞行课程、跳伞或其他飞行体验。

跑道

Id 标题 侧风 逆风 侧风 %
14/32 141°-321° 2 kt 2 kt 66 %

逆风成分最大的方向会被突出显示,并用于横风计算。 这并不一定意味着这个方向在使用。

乌云

2.200 ft BKN 碎云
2.700 ft BKN 碎云
4.000 ft OVC 乌云密布

温度 & 天气

温度 6 °C
露点 3 °C
相对湿度 81%
风寒 4 °C
Kp-index 1 (0-9)

白天

日出
08:05
中午
12:40
日落
17:15 (45m)

小工具

你想在你的网站上有一个关于Castres-Mazamet Airport的当前航空天气(METAR)的小部件吗?

显示HTML代码

我们和第三方通过cookies跟踪您在我们网站上的互联网行为。如果你继续,我们认为你同意我们的饼干政策